sensor_id;sensor_type;location;lat;lon;timestamp;pressure;altitude;pressure_sealevel;temperature;humidity
6938;BME280;40040;42.706;23.372;2023-03-21T00:02:02;147127.84;;;11.99;71.03
6938;BME280;40040;42.706;23.372;2023-03-21T00:04:30;147119.19;;;11.95;70.75
6938;BME280;40040;42.706;23.372;2023-03-21T00:06:57;147106.84;;;11.90;70.65
6938;BME280;40040;42.706;23.372;2023-03-21T00:09:24;147119.19;;;11.95;70.79
6938;BME280;40040;42.706;23.372;2023-03-21T00:11:51;147085.84;;;11.82;71.51
6938;BME280;40040;42.706;23.372;2023-03-21T00:14:18;147085.84;;;11.82;71.65
6938;BME280;40040;42.706;23.372;2023-03-21T00:16:45;147095.69;;;11.86;71.25
6938;BME280;40040;42.706;23.372;2023-03-21T00:19:15;147031.44;;;11.60;71.30
6938;BME280;40040;42.706;23.372;2023-03-21T00:21:44;147077.22;;;11.78;72.64
6938;BME280;40040;42.706;23.372;2023-03-21T00:24:11;147068.56;;;11.75;72.68
6938;BME280;40040;42.706;23.372;2023-03-21T00:26:38;147098.19;;;11.87;71.98
6938;BME280;40040;42.706;23.372;2023-03-21T00:29:05;147109.31;;;11.91;71.30
6938;BME280;40040;42.706;23.372;2023-03-21T00:31:32;147093.25;;;11.85;71.06
6938;BME280;40040;42.706;23.372;2023-03-21T00:33:59;147085.84;;;11.82;71.21
6938;BME280;40040;42.706;23.372;2023-03-21T00:36:27;147045.09;;;11.65;72.28
6938;BME280;40040;42.706;23.372;2023-03-21T00:38:55;147016.66;;;11.54;72.69
6938;BME280;40040;42.706;23.372;2023-03-21T00:41:22;147024.06;;;11.57;73.72
6938;BME280;40040;42.706;23.372;2023-03-21T00:43:48;147006.75;;;11.50;74.05
6938;BME280;40040;42.706;23.372;2023-03-21T00:46:16;146911.69;;;11.11;74.54
6938;BME280;40040;42.706;23.372;2023-03-21T00:48:43;146968.50;;;11.34;74.95
6938;BME280;40040;42.706;23.372;2023-03-21T00:51:12;146964.78;;;11.32;75.23
6938;BME280;40040;42.706;23.372;2023-03-21T00:53:41;146915.41;;;11.12;75.18
6938;BME280;40040;42.706;23.372;2023-03-21T00:56:09;146908.00;;;11.09;75.90
6938;BME280;40040;42.706;23.372;2023-03-21T00:58:36;146916.66;;;11.13;76.28
6938;BME280;40040;42.706;23.372;2023-03-21T01:01:03;146917.91;;;11.13;75.93
6938;BME280;40040;42.706;23.372;2023-03-21T01:03:32;146868.50;;;10.93;76.94
6938;BME280;40040;42.706;23.372;2023-03-21T01:06:08;146880.84;;;10.98;77.60
6938;BME280;40040;42.706;23.372;2023-03-21T01:08:39;146873.44;;;10.95;77.85
6938;BME280;40040;42.706;23.372;2023-03-21T01:11:10;146777.22;;;10.56;78.64
6938;BME280;40040;42.706;23.372;2023-03-21T01:13:38;146821.63;;;10.74;79.46
6938;BME280;40040;42.706;23.372;2023-03-21T01:16:07;146735.25;;;10.39;80.46
6938;BME280;40040;42.706;23.372;2023-03-21T01:18:35;146798.19;;;10.65;80.55
6938;BME280;40040;42.706;23.372;2023-03-21T01:21:06;146742.69;;;10.42;80.92
6938;BME280;40040;42.706;23.372;2023-03-21T01:23:33;146777.22;;;10.56;81.64
6938;BME280;40040;42.706;23.372;2023-03-21T01:26:00;146779.66;;;10.57;81.95
6938;BME280;40040;42.706;23.372;2023-03-21T01:28:29;146751.31;;;10.46;83.05
6938;BME280;40040;42.706;23.372;2023-03-21T01:30:56;146736.50;;;10.40;83.88
6938;BME280;40040;42.706;23.372;2023-03-21T01:33:23;146729.09;;;10.37;84.37
6938;BME280;40040;42.706;23.372;2023-03-21T01:35:50;146711.81;;;10.30;84.59
6938;BME280;40040;42.706;23.372;2023-03-21T01:38:16;146710.59;;;10.29;84.38
6938;BME280;40040;42.706;23.372;2023-03-21T01:40:45;146735.25;;;10.39;84.39
6938;BME280;40040;42.706;23.372;2023-03-21T01:43:22;146698.25;;;10.24;84.56
6938;BME280;40040;42.706;23.372;2023-03-21T01:48:59;146714.28;;;10.31;86.52
6938;BME280;40040;42.706;23.372;2023-03-21T01:51:29;146693.31;;;10.22;85.80
6938;BME280;40040;42.706;23.372;2023-03-21T01:53:58;146701.94;;;10.26;86.21
6938;BME280;40040;42.706;23.372;2023-03-21T01:56:29;146711.81;;;10.30;85.94
6938;BME280;40040;42.706;23.372;2023-03-21T01:59:02;146726.59;;;10.36;85.14
6938;BME280;40040;42.706;23.372;2023-03-21T02:01:31;146751.31;;;10.46;85.05
6938;BME280;40040;42.706;23.372;2023-03-21T02:04:00;146730.34;;;10.37;84.82
6938;BME280;40040;42.706;23.372;2023-03-21T02:06:34;146698.25;;;10.24;85.64
6938;BME280;40040;42.706;23.372;2023-03-21T02:09:04;146673.59;;;10.14;86.72
6938;BME280;40040;42.706;23.372;2023-03-21T02:11:33;146661.28;;;10.09;85.96
6938;BME280;40040;42.706;23.372;2023-03-21T02:14:01;146587.22;;;9.79;86.29
6938;BME280;40040;42.706;23.372;2023-03-21T02:16:45;146647.66;;;10.03;86.78
6938;BME280;40040;42.706;23.372;2023-03-21T02:22:22;146602.03;;;9.85;88.17
6938;BME280;40040;42.706;23.372;2023-03-21T02:25:09;146614.38;;;9.90;87.46
6938;BME280;40040;42.706;23.372;2023-03-21T02:27:45;146621.75;;;9.93;86.49
6938;BME280;40040;42.706;23.372;2023-03-21T02:30:39;146611.88;;;9.89;86.72
6938;BME280;40040;42.706;23.372;2023-03-21T02:33:19;146577.34;;;9.75;87.61
6938;BME280;40040;42.706;23.372;2023-03-21T02:36:02;146584.78;;;9.78;87.96
6938;BME280;40040;42.706;23.372;2023-03-21T02:38:37;146552.69;;;9.65;89.28
6938;BME280;40040;42.706;23.372;2023-03-21T02:41:11;146529.31;;;9.55;89.94
6938;BME280;40040;42.706;23.372;2023-03-21T02:43:44;146494.78;;;9.41;90.72
6938;BME280;40040;42.706;23.372;2023-03-21T02:46:15;146498.47;;;9.43;90.76
6938;BME280;40040;42.706;23.372;2023-03-21T02:48:49;146481.22;;;9.36;91.87
6938;BME280;40040;42.706;23.372;2023-03-21T02:51:20;146451.63;;;9.24;92.46
6938;BME280;40040;42.706;23.372;2023-03-21T02:53:52;146429.44;;;9.15;93.15
6938;BME280;40040;42.706;23.372;2023-03-21T02:56:21;146412.19;;;9.07;94.57
6938;BME280;40040;42.706;23.372;2023-03-21T02:58:51;146370.31;;;8.90;95.89
6938;BME280;40040;42.706;23.372;2023-03-21T03:01:18;146281.56;;;8.54;96.83
6938;BME280;40040;42.706;23.372;2023-03-21T03:03:45;146328.44;;;8.73;97.90
6938;BME280;40040;42.706;23.372;2023-03-21T03:06:16;146317.31;;;8.69;98.28
6938;BME280;40040;42.706;23.372;2023-03-21T03:08:59;146340.75;;;8.78;98.24
6938;BME280;40040;42.706;23.372;2023-03-21T03:11:33;146313.63;;;8.67;98.36
6938;BME280;40040;42.706;23.372;2023-03-21T03:14:13;146340.75;;;8.78;98.28
6938;BME280;40040;42.706;23.372;2023-03-21T03:16:48;146327.19;;;8.73;98.95
6938;BME280;40040;42.706;23.372;2023-03-21T03:19:25;146337.06;;;8.77;99.12
6938;BME280;40040;42.706;23.372;2023-03-21T03:21:58;146338.25;;;8.77;98.81
6938;BME280;40040;42.706;23.372;2023-03-21T03:24:30;146337.06;;;8.77;99.08
6938;BME280;40040;42.706;23.372;2023-03-21T03:27:03;146343.19;;;8.79;98.56
6938;BME280;40040;42.706;23.372;2023-03-21T03:29:33;146346.88;;;8.81;98.07
6938;BME280;40040;42.706;23.372;2023-03-21T03:32:06;146337.06;;;8.77;98.09
6938;BME280;40040;42.706;23.372;2023-03-21T03:34:39;146312.38;;;8.67;98.91
6938;BME280;40040;42.706;23.372;2023-03-21T03:37:10;146334.56;;;8.76;99.07
6938;BME280;40040;42.706;23.372;2023-03-21T03:39:46;146341.94;;;8.79;97.91
6938;BME280;40040;42.706;23.372;2023-03-21T03:42:17;146312.38;;;8.67;97.96
6938;BME280;40040;42.706;23.372;2023-03-21T03:44:45;146286.50;;;8.56;98.51
6938;BME280;40040;42.706;23.372;2023-03-21T03:47:16;146330.88;;;8.74;98.52
6938;BME280;40040;42.706;23.372;2023-03-21T03:49:49;146324.69;;;8.72;98.42
6938;BME280;40040;42.706;23.372;2023-03-21T03:52:21;146293.94;;;8.59;98.75
6938;BME280;40040;42.706;23.372;2023-03-21T03:54:53;146206.47;;;8.24;99.17
6938;BME280;40040;42.706;23.372;2023-03-21T03:57:21;146259.44;;;8.45;100.00
6938;BME280;40040;42.706;23.372;2023-03-21T03:59:48;146239.72;;;8.37;100.00
6938;BME280;40040;42.706;23.372;2023-03-21T04:02:14;146180.56;;;8.13;100.00
6938;BME280;40040;42.706;23.372;2023-03-21T04:04:41;146248.34;;;8.41;100.00
6938;BME280;40040;42.706;23.372;2023-03-21T04:07:08;146243.41;;;8.39;100.00
6938;BME280;40040;42.706;23.372;2023-03-21T04:09:35;146237.25;;;8.36;100.00
6938;BME280;40040;42.706;23.372;2023-03-21T04:12:03;146173.19;;;8.10;100.00
6938;BME280;40040;42.706;23.372;2023-03-21T04:14:30;146186.72;;;8.16;100.00
6938;BME280;40040;42.706;23.372;2023-03-21T04:16:57;146208.91;;;8.25;100.00
6938;BME280;40040;42.706;23.372;2023-03-21T04:19:24;146179.31;;;8.13;100.00
6938;BME280;40040;42.706;23.372;2023-03-21T04:21:51;146165.81;;;8.07;100.00
6938;BME280;40040;42.706;23.372;2023-03-21T04:24:18;146142.38;;;7.97;100.00
6938;BME280;40040;42.706;23.372;2023-03-21T04:26:45;146151.00;;;8.01;100.00
6938;BME280;40040;42.706;23.372;2023-03-21T04:29:13;146144.84;;;7.98;100.00
6938;BME280;40040;42.706;23.372;2023-03-21T04:31:40;146126.41;;;7.91;100.00
6938;BME280;40040;42.706;23.372;2023-03-21T04:34:07;146098.06;;;7.79;100.00
6938;BME280;40040;42.706;23.372;2023-03-21T04:36:37;146100.53;;;7.80;100.00
6938;BME280;40040;42.706;23.372;2023-03-21T04:39:08;146104.22;;;7.82;100.00
6938;BME280;40040;42.706;23.372;2023-03-21T04:41:37;146084.56;;;7.74;100.00
6938;BME280;40040;42.706;23.372;2023-03-21T04:44:04;146052.53;;;7.61;100.00
6938;BME280;40040;42.706;23.372;2023-03-21T04:46:33;146084.56;;;7.74;100.00
6938;BME280;40040;42.706;23.372;2023-03-21T04:49:01;146096.84;;;7.79;100.00
6938;BME280;40040;42.706;23.372;2023-03-21T04:51:28;146087.00;;;7.75;100.00
6938;BME280;40040;42.706;23.372;2023-03-21T04:53:55;146080.81;;;7.72;100.00
6938;BME280;40040;42.706;23.372;2023-03-21T04:56:22;146023.00;;;7.49;100.00
6938;BME280;40040;42.706;23.372;2023-03-21T04:58:55;146048.84;;;7.59;100.00
6938;BME280;40040;42.706;23.372;2023-03-21T05:01:22;146079.63;;;7.72;100.00
6938;BME280;40040;42.706;23.372;2023-03-21T05:03:51;146089.44;;;7.76;100.00
6938;BME280;40040;42.706;23.372;2023-03-21T05:06:18;146023.00;;;7.49;100.00
6938;BME280;40040;42.706;23.372;2023-03-21T05:08:45;146104.22;;;7.82;100.00
6938;BME280;40040;42.706;23.372;2023-03-21T05:11:12;146104.22;;;7.82;100.00
6938;BME280;40040;42.706;23.372;2023-03-21T05:13:39;146116.53;;;7.87;100.00
6938;BME280;40040;42.706;23.372;2023-03-21T05:16:07;146082.06;;;7.73;100.00
6938;BME280;40040;42.706;23.372;2023-03-21T05:18:34;146027.94;;;7.51;100.00
6938;BME280;40040;42.706;23.372;2023-03-21T05:21:05;146093.16;;;7.77;100.00
6938;BME280;40040;42.706;23.372;2023-03-21T05:23:35;146132.53;;;7.93;100.00
6938;BME280;40040;42.706;23.372;2023-03-21T05:26:04;146151.00;;;8.01;100.00
6938;BME280;40040;42.706;23.372;2023-03-21T05:28:31;146160.88;;;8.05;100.00
6938;BME280;40040;42.706;23.372;2023-03-21T05:31:01;146191.63;;;8.18;100.00
6938;BME280;40040;42.706;23.372;2023-03-21T05:33:28;146215.09;;;8.27;100.00
6938;BME280;40040;42.706;23.372;2023-03-21T05:35:56;146224.97;;;8.31;100.00
6938;BME280;40040;42.706;23.372;2023-03-21T05:38:24;146234.78;;;8.35;100.00
6938;BME280;40040;42.706;23.372;2023-03-21T05:40:53;146250.81;;;8.42;100.00
6938;BME280;40040;42.706;23.372;2023-03-21T05:43:20;146258.19;;;8.45;100.00
6938;BME280;40040;42.706;23.372;2023-03-21T05:45:46;146264.31;;;8.47;100.00
6938;BME280;40040;42.706;23.372;2023-03-21T05:48:13;146271.75;;;8.50;100.00
6938;BME280;40040;42.706;23.372;2023-03-21T05:50:40;146316.06;;;8.68;100.00
6938;BME280;40040;42.706;23.372;2023-03-21T05:53:07;146325.94;;;8.72;100.00
6938;BME280;40040;42.706;23.372;2023-03-21T05:55:36;146300.06;;;8.62;100.00
6938;BME280;40040;42.706;23.372;2023-03-21T05:58:03;146390.00;;;8.98;100.00
6938;BME280;40040;42.706;23.372;2023-03-21T06:00:30;146412.19;;;9.07;100.00
6938;BME280;40040;42.706;23.372;2023-03-21T06:02:57;146429.44;;;9.15;100.00
6938;BME280;40040;42.706;23.372;2023-03-21T06:05:24;146468.91;;;9.31;100.00
6938;BME280;40040;42.706;23.372;2023-03-21T06:07:51;146500.91;;;9.44;100.00
6938;BME280;40040;42.706;23.372;2023-03-21T06:10:18;146563.78;;;9.69;100.00
6938;BME280;40040;42.706;23.372;2023-03-21T06:12:46;146608.19;;;9.87;100.00
6938;BME280;40040;42.706;23.372;2023-03-21T06:15:13;146634.06;;;9.98;99.73
6938;BME280;40040;42.706;23.372;2023-03-21T06:17:40;146611.88;;;9.89;98.92
6938;BME280;40040;42.706;23.372;2023-03-21T06:20:08;146693.31;;;10.22;94.48
6938;BME280;40040;42.706;23.372;2023-03-21T06:22:36;146735.25;;;10.39;93.46
6938;BME280;40040;42.706;23.372;2023-03-21T06:25:04;146778.44;;;10.57;90.73
6938;BME280;40040;42.706;23.372;2023-03-21T06:27:31;146815.47;;;10.72;88.34
6938;BME280;40040;42.706;23.372;2023-03-21T06:30:00;146814.22;;;10.71;86.80
6938;BME280;40040;42.706;23.372;2023-03-21T06:32:27;146884.59;;;11.00;85.55
6938;BME280;40040;42.706;23.372;2023-03-21T06:34:54;146875.94;;;10.96;87.83
6938;BME280;40040;42.706;23.372;2023-03-21T06:37:21;146814.22;;;10.71;89.74
6938;BME280;40040;42.706;23.372;2023-03-21T06:39:47;146891.97;;;11.03;91.16
6938;BME280;40040;42.706;23.372;2023-03-21T06:42:14;146822.88;;;10.75;91.98
6938;BME280;40040;42.706;23.372;2023-03-21T06:44:41;146857.41;;;10.89;93.42
6938;BME280;40040;42.706;23.372;2023-03-21T06:47:09;146845.09;;;10.84;95.94
6938;BME280;40040;42.706;23.372;2023-03-21T06:49:36;146842.59;;;10.83;94.28
6938;BME280;40040;42.706;23.372;2023-03-21T06:52:03;146853.72;;;10.87;93.71
6938;BME280;40040;42.706;23.372;2023-03-21T06:54:30;146830.25;;;10.78;92.47
6938;BME280;40040;42.706;23.372;2023-03-21T06:56:57;146875.94;;;10.96;90.52
6938;BME280;40040;42.706;23.372;2023-03-21T06:59:23;146880.84;;;10.98;88.66
6938;BME280;40040;42.706;23.372;2023-03-21T07:01:50;146890.72;;;11.02;88.54
6938;BME280;40040;42.706;23.372;2023-03-21T07:04:19;146912.94;;;11.11;87.54
6938;BME280;40040;42.706;23.372;2023-03-21T07:06:45;146937.63;;;11.21;85.02
6938;BME280;40040;42.706;23.372;2023-03-21T07:09:12;146954.91;;;11.28;82.46
6938;BME280;40040;42.706;23.372;2023-03-21T07:11:42;146969.75;;;11.34;81.33
6938;BME280;40040;42.706;23.372;2023-03-21T07:14:09;146991.97;;;11.44;82.23
6938;BME280;40040;42.706;23.372;2023-03-21T07:16:35;147024.06;;;11.57;82.07
6938;BME280;40040;42.706;23.372;2023-03-21T07:19:02;147045.09;;;11.65;81.37
6938;BME280;40040;42.706;23.372;2023-03-21T07:21:31;147093.25;;;11.85;79.32
6938;BME280;40040;42.706;23.372;2023-03-21T07:23:58;147126.59;;;11.98;77.86
6938;BME280;40040;42.706;23.372;2023-03-21T07:26:25;147159.94;;;12.12;77.05
6938;BME280;40040;42.706;23.372;2023-03-21T07:28:52;147184.66;;;12.22;75.85
6938;BME280;40040;42.706;23.372;2023-03-21T07:31:19;147190.81;;;12.24;75.99
6938;BME280;40040;42.706;23.372;2023-03-21T07:33:46;147209.38;;;12.32;73.82
6938;BME280;40040;42.706;23.372;2023-03-21T07:36:14;147256.31;;;12.51;71.64
6938;BME280;40040;42.706;23.372;2023-03-21T07:38:43;147256.31;;;12.51;72.47
6938;BME280;40040;42.706;23.372;2023-03-21T07:41:10;147266.22;;;12.55;71.15
6938;BME280;40040;42.706;23.372;2023-03-21T07:43:37;147303.25;;;12.70;69.61
6938;BME280;40040;42.706;23.372;2023-03-21T07:46:05;147334.16;;;12.83;69.45
6938;BME280;40040;42.706;23.372;2023-03-21T07:48:32;147379.88;;;13.01;68.62
6938;BME280;40040;42.706;23.372;2023-03-21T07:50:59;147409.59;;;13.13;67.94
6938;BME280;40040;42.706;23.372;2023-03-21T07:53:26;147434.31;;;13.23;66.43
6938;BME280;40040;42.706;23.372;2023-03-21T07:55:54;147502.34;;;13.51;65.36
6938;BME280;40040;42.706;23.372;2023-03-21T07:58:21;147536.94;;;13.65;64.01
6938;BME280;40040;42.706;23.372;2023-03-21T08:00:48;147559.19;;;13.74;64.04
6938;BME280;40040;42.706;23.372;2023-03-21T08:03:16;147587.69;;;13.86;63.45
6938;BME280;40040;42.706;23.372;2023-03-21T08:05:43;147605.00;;;13.93;63.27
6938;BME280;40040;42.706;23.372;2023-03-21T08:08:10;147628.47;;;14.02;63.99
6938;BME280;40040;42.706;23.372;2023-03-21T08:10:37;147624.78;;;14.01;63.28
6938;BME280;40040;42.706;23.372;2023-03-21T08:13:05;147612.41;;;13.96;63.79
6938;BME280;40040;42.706;23.372;2023-03-21T08:15:32;147624.78;;;14.01;63.35
6938;BME280;40040;42.706;23.372;2023-03-21T08:17:59;147665.63;;;14.17;62.36
6938;BME280;40040;42.706;23.372;2023-03-21T08:20:26;147643.34;;;14.08;61.81
6938;BME280;40040;42.706;23.372;2023-03-21T08:22:53;147716.38;;;14.38;60.54
6938;BME280;40040;42.706;23.372;2023-03-21T08:25:21;147768.38;;;14.59;60.05
6938;BME280;40040;42.706;23.372;2023-03-21T08:27:49;147820.34;;;14.80;58.54
6938;BME280;40040;42.706;23.372;2023-03-21T08:30:19;147845.09;;;14.90;58.27
6938;BME280;40040;42.706;23.372;2023-03-21T08:32:46;147879.75;;;15.04;57.49
6938;BME280;40040;42.706;23.372;2023-03-21T08:35:15;147928.00;;;15.24;56.18
6938;BME280;40040;42.706;23.372;2023-03-21T08:37:43;147930.50;;;15.25;55.82
6938;BME280;40040;42.706;23.372;2023-03-21T08:40:11;147944.13;;;15.30;56.39
6938;BME280;40040;42.706;23.372;2023-03-21T08:42:39;147954.00;;;15.34;56.98
6938;BME280;40040;42.706;23.372;2023-03-21T08:45:08;147987.53;;;15.48;56.26
6938;BME280;40040;42.706;23.372;2023-03-21T08:47:36;148033.34;;;15.66;55.63
6938;BME280;40040;42.706;23.372;2023-03-21T08:50:05;148002.38;;;15.54;54.43
6938;BME280;40040;42.706;23.372;2023-03-21T08:52:32;148060.59;;;15.77;55.00
6938;BME280;40040;42.706;23.372;2023-03-21T08:54:59;148091.53;;;15.90;54.06
6938;BME280;40040;42.706;23.372;2023-03-21T08:57:27;148102.72;;;15.95;54.14
6938;BME280;40040;42.706;23.372;2023-03-21T08:59:54;148092.78;;;15.91;53.85
6938;BME280;40040;42.706;23.372;2023-03-21T09:02:21;148077.94;;;15.85;54.70
6938;BME280;40040;42.706;23.372;2023-03-21T09:04:49;148077.94;;;15.85;53.65
6938;BME280;40040;42.706;23.372;2023-03-21T09:07:19;148016.00;;;15.59;54.01
6938;BME280;40040;42.706;23.372;2023-03-21T09:09:47;148049.44;;;15.73;54.17
6938;BME280;40040;42.706;23.372;2023-03-21T09:12:16;148090.31;;;15.90;53.99
6938;BME280;40040;42.706;23.372;2023-03-21T09:14:43;148053.13;;;15.74;53.41
6938;BME280;40040;42.706;23.372;2023-03-21T09:17:10;148117.53;;;16.01;53.21
6938;BME280;40040;42.706;23.372;2023-03-21T09:19:37;148127.47;;;16.05;52.53
6938;BME280;40040;42.706;23.372;2023-03-21T09:22:06;148095.28;;;15.92;52.41
6938;BME280;40040;42.706;23.372;2023-03-21T09:24:42;148091.53;;;15.90;52.46
6938;BME280;40040;42.706;23.372;2023-03-21T09:27:12;148117.53;;;16.01;51.94
6938;BME280;40040;42.706;23.372;2023-03-21T09:29:40;148133.69;;;16.07;53.24
6938;BME280;40040;42.706;23.372;2023-03-21T09:32:08;148183.22;;;16.27;52.36
6938;BME280;40040;42.706;23.372;2023-03-21T09:34:36;148216.66;;;16.41;52.80
6938;BME280;40040;42.706;23.372;2023-03-21T09:37:07;148206.78;;;16.37;52.78
6938;BME280;40040;42.706;23.372;2023-03-21T09:39:38;148208.00;;;16.37;52.45
6938;BME280;40040;42.706;23.372;2023-03-21T09:42:28;148221.63;;;16.43;52.47
6938;BME280;40040;42.706;23.372;2023-03-21T09:45:06;148245.25;;;16.52;52.25
6938;BME280;40040;42.706;23.372;2023-03-21T09:47:39;148251.41;;;16.55;51.78
6938;BME280;40040;42.706;23.372;2023-03-21T09:50:16;148271.28;;;16.63;51.78
6938;BME280;40040;42.706;23.372;2023-03-21T09:52:48;148265.06;;;16.60;52.09
6938;BME280;40040;42.706;23.372;2023-03-21T09:55:19;148281.16;;;16.67;51.67
6938;BME280;40040;42.706;23.372;2023-03-21T09:57:50;148293.56;;;16.72;51.69
6938;BME280;40040;42.706;23.372;2023-03-21T10:00:25;148298.50;;;16.74;51.69
6938;BME280;40040;42.706;23.372;2023-03-21T10:02:56;148298.50;;;16.74;51.54
6938;BME280;40040;42.706;23.372;2023-03-21T10:05:28;148278.69;;;16.66;51.63
6938;BME280;40040;42.706;23.372;2023-03-21T10:08:01;148296.06;;;16.73;51.09
6938;BME280;40040;42.706;23.372;2023-03-21T10:10:33;148277.44;;;16.65;50.93
6938;BME280;40040;42.706;23.372;2023-03-21T10:13:01;148283.66;;;16.68;51.96
6938;BME280;40040;42.706;23.372;2023-03-21T10:15:30;148343.16;;;16.92;50.56
6938;BME280;40040;42.706;23.372;2023-03-21T10:17:59;148333.22;;;16.88;49.71
6938;BME280;40040;42.706;23.372;2023-03-21T10:20:30;148434.91;;;17.29;49.82
6938;BME280;40040;42.706;23.372;2023-03-21T10:23:00;148524.25;;;17.65;49.66
6938;BME280;40040;42.706;23.372;2023-03-21T10:25:30;148616.06;;;18.03;48.34
6938;BME280;40040;42.706;23.372;2023-03-21T10:27:58;148655.72;;;18.19;47.76
6938;BME280;40040;42.706;23.372;2023-03-21T10:30:35;148740.19;;;18.53;47.58
6938;BME280;40040;42.706;23.372;2023-03-21T10:33:06;148830.78;;;18.89;46.02
6938;BME280;40040;42.706;23.372;2023-03-21T10:35:36;148844.47;;;18.95;46.04
6938;BME280;40040;42.706;23.372;2023-03-21T10:38:06;148896.56;;;19.16;45.85
6938;BME280;40040;42.706;23.372;2023-03-21T10:40:36;148932.63;;;19.31;45.93
6938;BME280;40040;42.706;23.372;2023-03-21T10:43:30;148876.72;;;19.08;45.46
6938;BME280;40040;42.706;23.372;2023-03-21T10:46:06;148861.84;;;19.02;45.10
6938;BME280;40040;42.706;23.372;2023-03-21T10:48:38;148865.56;;;19.03;44.71
6938;BME280;40040;42.706;23.372;2023-03-21T10:51:07;148846.94;;;18.96;45.06
6938;BME280;40040;42.706;23.372;2023-03-21T10:53:38;148870.53;;;19.05;44.04
6938;BME280;40040;42.706;23.372;2023-03-21T10:56:08;148885.41;;;19.12;44.32
6938;BME280;40040;42.706;23.372;2023-03-21T10:58:38;148948.75;;;19.37;43.12
6938;BME280;40040;42.706;23.372;2023-03-21T11:01:09;149044.41;;;19.76;43.33
6938;BME280;40040;42.706;23.372;2023-03-21T11:03:41;149127.66;;;20.09;42.45
6938;BME280;40040;42.706;23.372;2023-03-21T11:06:14;149142.53;;;20.15;41.48
6938;BME280;40040;42.706;23.372;2023-03-21T11:08:46;149115.25;;;20.04;40.81
6938;BME280;40040;42.706;23.372;2023-03-21T11:11:23;149096.59;;;19.97;40.00
6938;BME280;40040;42.706;23.372;2023-03-21T11:13:57;149051.84;;;19.79;40.25
6938;BME280;40040;42.706;23.372;2023-03-21T11:16:29;149091.59;;;19.95;40.31
6938;BME280;40040;42.706;23.372;2023-03-21T11:19:00;149145.09;;;20.17;40.48
6938;BME280;40040;42.706;23.372;2023-03-21T11:21:34;149209.72;;;20.43;40.08
6938;BME280;40040;42.706;23.372;2023-03-21T11:24:04;149254.44;;;20.61;39.40
6938;BME280;40040;42.706;23.372;2023-03-21T11:26:33;149264.38;;;20.65;38.36
6938;BME280;40040;42.706;23.372;2023-03-21T11:29:11;149264.38;;;20.65;38.67
6938;BME280;40040;42.706;23.372;2023-03-21T11:31:43;149301.72;;;20.80;39.11
6938;BME280;40040;42.706;23.372;2023-03-21T11:34:23;149268.09;;;20.66;39.41
6938;BME280;40040;42.706;23.372;2023-03-21T11:36:52;149353.91;;;21.01;39.29
6938;BME280;40040;42.706;23.372;2023-03-21T11:39:33;149297.94;;;20.78;39.52
6938;BME280;40040;42.706;23.372;2023-03-21T11:42:01;149291.75;;;20.76;39.36
6938;BME280;40040;42.706;23.372;2023-03-21T11:44:31;149356.44;;;21.02;39.53
6938;BME280;40040;42.706;23.372;2023-03-21T11:46:58;149370.13;;;21.07;38.31
6938;BME280;40040;42.706;23.372;2023-03-21T11:49:25;149329.03;;;20.91;37.99
6938;BME280;40040;42.706;23.372;2023-03-21T11:52:17;149307.91;;;20.82;38.19
6938;BME280;40040;42.706;23.372;2023-03-21T11:54:59;149283.03;;;20.72;38.83
6938;BME280;40040;42.706;23.372;2023-03-21T11:57:35;149283.03;;;20.72;39.02
6938;BME280;40040;42.706;23.372;2023-03-21T12:00:11;149284.31;;;20.73;38.83
6938;BME280;40040;42.706;23.372;2023-03-21T12:03:00;149329.03;;;20.91;38.44
6938;BME280;40040;42.706;23.372;2023-03-21T12:05:32;149325.31;;;20.89;37.42
6938;BME280;40040;42.706;23.372;2023-03-21T12:08:06;149331.53;;;20.92;37.19
6938;BME280;40040;42.706;23.372;2023-03-21T12:10:43;149207.22;;;20.42;38.44
6938;BME280;40040;42.706;23.372;2023-03-21T12:13:39;149150.09;;;20.19;38.95
6938;BME280;40040;42.706;23.372;2023-03-21T12:21:51;149023.31;;;19.67;39.87
6938;BME280;40040;42.706;23.372;2023-03-21T12:24:22;149054.34;;;19.80;39.21
6938;BME280;40040;42.706;23.372;2023-03-21T12:26:58;149051.84;;;19.79;39.97
6938;BME280;40040;42.706;23.372;2023-03-21T12:29:39;149081.72;;;19.91;40.01
6938;BME280;40040;42.706;23.372;2023-03-21T12:32:27;149034.47;;;19.72;39.84
6938;BME280;40040;42.706;23.372;2023-03-21T12:35:15;148998.47;;;19.57;39.85
6938;BME280;40040;42.706;23.372;2023-03-21T12:37:52;148879.19;;;19.09;40.21
6938;BME280;40040;42.706;23.372;2023-03-21T12:40:47;148953.75;;;19.39;40.33
6938;BME280;40040;42.706;23.372;2023-03-21T12:43:27;148959.97;;;19.42;39.87
6938;BME280;40040;42.706;23.372;2023-03-21T12:45:58;148895.34;;;19.16;39.76
6938;BME280;40040;42.706;23.372;2023-03-21T12:48:34;148899.06;;;19.17;39.48
6938;BME280;40040;42.706;23.372;2023-03-21T12:51:07;148921.44;;;19.26;39.27
6938;BME280;40040;42.706;23.372;2023-03-21T12:53:49;148946.31;;;19.36;39.71
6938;BME280;40040;42.706;23.372;2023-03-21T12:56:21;149023.31;;;19.67;39.18
6938;BME280;40040;42.706;23.372;2023-03-21T12:58:52;148998.47;;;19.57;39.77
6938;BME280;40040;42.706;23.372;2023-03-21T13:01:21;148969.88;;;19.46;39.76
6938;BME280;40040;42.706;23.372;2023-03-21T13:03:56;148967.41;;;19.45;40.33
6938;BME280;40040;42.706;23.372;2023-03-21T13:06:25;148935.16;;;19.32;40.21
6938;BME280;40040;42.706;23.372;2023-03-21T13:08:58;148966.16;;;19.44;40.89
6938;BME280;40040;42.706;23.372;2023-03-21T13:11:27;148955.00;;;19.40;40.88
6938;BME280;40040;42.706;23.372;2023-03-21T13:14:00;148926.41;;;19.28;40.79
6938;BME280;40040;42.706;23.372;2023-03-21T13:16:32;148877.97;;;19.08;41.26
6938;BME280;40040;42.706;23.372;2023-03-21T13:19:13;148876.72;;;19.08;41.27